Time;durP1;ratioP1;P1;durP2;ratioP2;P2;SDS_P1;SDS_P2;PMS_P1;PMS_P2;Temp;Humidity;BMP_temperature;BMP_pressure;BME280_temperature;BME280_humidity;BME280_pressure;Samples;Min_cycle;Max_cycle;Signal;HPM_P1;HPM_P2
2023/04/23 00:00:40;;;;;;;;;3.33;3.33;;;;;14.36;59.21;100416.97;5077364;28;45445;-69
2023/04/23 00:03:11;;;;;;;;;1.67;1.67;;;;;14.30;59.26;100403.91;5074456;28;45410;-68
2023/04/23 00:05:38;;;;;;;;;4.00;2.67;;;;;14.20;58.94;100384.78;5069349;27;45847;-72
2023/04/23 00:08:05;;;;;;;;;4.00;2.67;;;;;14.24;59.18;100397.00;5072400;27;46006;-68
2023/04/23 00:10:30;;;;;;;;;4.00;4.00;;;;;14.28;59.43;100408.34;5076710;27;45412;-70
2023/04/23 00:12:57;;;;;;;;;2.67;2.00;;;;;14.18;59.21;100399.72;5088491;27;45546;-71
2023/04/23 00:15:24;;;;;;;;;3.00;2.00;;;;;14.19;59.23;100419.94;5059096;27;45501;-73
2023/04/23 00:17:50;;;;;;;;;2.33;2.33;;;;;14.19;60.15;100422.56;5058022;28;47224;-70
2023/04/23 00:20:16;;;;;;;;;5.00;2.00;;;;;14.19;59.57;100426.06;5058163;27;45441;-70
2023/04/23 00:22:43;;;;;;;;;2.67;2.00;;;;;14.20;59.90;100427.78;5057078;28;45400;-69
2023/04/23 00:25:12;;;;;;;;;1.33;1.33;;;;;14.19;59.69;100422.56;5052786;28;45886;-70
2023/04/23 00:27:39;;;;;;;;;3.00;2.00;;;;;14.09;59.53;100399.91;5060952;27;46467;-73
2023/04/23 00:30:05;;;;;;;;;2.00;2.00;;;;;14.08;59.57;100396.41;5089451;27;45448;-69
2023/04/23 00:32:31;;;;;;;;;2.00;2.00;;;;;14.12;60.03;100413.03;5057590;27;45389;-72
2023/04/23 00:34:57;;;;;;;;;2.00;1.67;;;;;14.10;60.02;100412.19;5055591;27;45390;-72
2023/04/23 00:37:22;;;;;;;;;2.00;2.00;;;;;14.07;60.03;100399.03;5053098;28;45801;-70
2023/04/23 00:39:48;;;;;;;;;2.33;1.00;;;;;14.10;60.32;100405.13;5053700;28;45523;-70
2023/04/23 00:42:16;;;;;;;;;3.33;2.00;;;;;14.02;60.28;100409.66;5057196;27;45409;-69
2023/04/23 00:44:42;;;;;;;;;2.00;2.00;;;;;14.02;60.36;100412.28;5055681;27;45707;-69
2023/04/23 00:47:08;;;;;;;;;3.00;2.00;;;;;14.06;60.46;100421.03;5052896;28;45804;-70
2023/04/23 00:49:35;;;;;;;;;7.33;2.00;;;;;14.02;60.24;100412.28;5054342;27;45410;-70
2023/04/23 00:52:00;;;;;;;;;3.00;2.00;;;;;13.97;60.78;100406.25;5058548;27;45476;-70
2023/04/23 00:54:27;;;;;;;;;4.00;3.00;;;;;13.90;60.73;100394.94;5056985;27;45303;-70
2023/04/23 00:56:54;;;;;;;;;3.00;3.00;;;;;13.87;60.44;100387.09;5053567;28;46864;-70
2023/04/23 00:59:20;;;;;;;;;3.00;2.67;;;;;13.97;60.74;100401.84;5053699;27;45308;-71
2023/04/23 01:01:46;;;;;;;;;1.00;1.00;;;;;13.94;60.57;100398.41;5053727;27;45409;-70
2023/04/23 01:04:16;;;;;;;;;3.00;2.00;;;;;13.90;61.04;100407.25;5054314;27;45478;-72
2023/04/23 01:06:42;;;;;;;;;4.67;3.00;;;;;13.82;61.81;100395.97;5057484;28;45394;-69
2023/04/23 01:09:09;;;;;;;;;2.00;2.00;;;;;13.76;61.52;100394.31;5059936;28;45897;-68
2023/04/23 01:11:38;;;;;;;;;4.33;3.00;;;;;13.69;61.79;100390.94;5067641;28;46113;-70
2023/04/23 01:14:04;;;;;;;;;4.67;2.67;;;;;13.68;62.22;100398.84;5072092;28;45631;-70
2023/04/23 01:16:30;;;;;;;;;2.00;2.00;;;;;13.64;62.04;100390.09;5077181;27;46035;-71
2023/04/23 01:18:57;;;;;;;;;4.67;3.00;;;;;13.62;62.77;100391.91;5092487;27;45387;-70
2023/04/23 01:21:24;;;;;;;;;3.00;2.00;;;;;13.54;62.55;100370.09;5073867;28;45361;-70
2023/04/23 01:23:50;;;;;;;;;2.00;2.00;;;;;13.58;62.89;100379.69;5076147;27;45302;-71
2023/04/23 01:26:17;;;;;;;;;3.33;2.33;;;;;13.58;62.55;100374.44;5077516;28;45488;-72
2023/04/23 01:28:45;;;;;;;;;3.00;3.00;;;;;13.61;62.99;100376.16;5077970;28;45830;-74
2023/04/23 01:31:13;;;;;;;;;3.67;2.33;;;;;13.61;62.85;100371.75;5063136;28;45338;-73
2023/04/23 01:33:40;;;;;;;;;4.67;3.67;;;;;13.57;63.17;100378.84;5073358;27;45450;-74
2023/04/23 01:36:07;;;;;;;;;6.67;3.00;;;;;13.51;63.57;100373.66;5073100;28;46491;-72
2023/04/23 01:38:34;;;;;;;;;2.67;2.00;;;;;13.30;63.40;100335.41;5075279;27;45476;-73
2023/04/23 01:41:00;;;;;;;;;4.00;3.00;;;;;13.44;63.55;100369.38;5077284;28;45379;-71
2023/04/23 01:43:26;;;;;;;;;6.67;1.67;;;;;13.41;64.41;100371.22;5077422;28;45305;-72
2023/04/23 01:45:51;;;;;;;;;4.33;2.67;;;;;13.29;63.95;100362.59;5081033;28;46156;-70
2023/04/23 01:48:17;;;;;;;;;6.00;3.00;;;;;13.30;64.61;100358.22;5081406;27;45889;-72
2023/04/23 01:50:43;;;;;;;;;5.00;3.00;;;;;13.06;65.21;100354.16;5080306;28;45792;-75
2023/04/23 01:53:09;;;;;;;;;3.00;3.00;;;;;13.10;65.59;100369.88;5081597;28;45356;-71
2023/04/23 01:55:38;;;;;;;;;8.00;3.00;;;;;12.99;65.19;100357.75;5081263;27;45421;-72
2023/04/23 01:58:04;;;;;;;;;7.50;4.00;;;;;12.96;65.57;100358.69;5076239;28;45349;-71
2023/04/23 02:00:30;;;;;;;;;3.00;3.00;;;;;12.81;66.24;100348.34;5077160;27;45482;-69
2023/04/23 02:02:55;;;;;;;;;4.33;3.00;;;;;12.72;66.56;100344.97;5092851;27;45333;-69
2023/04/23 02:05:21;;;;;;;;;4.00;2.00;;;;;12.69;66.79;100349.38;5092459;27;45768;-70
2023/04/23 02:07:49;;;;;;;;;3.33;2.33;;;;;12.61;67.33;100348.63;5066742;27;45407;-70
2023/04/23 02:10:15;;;;;;;;;4.33;3.00;;;;;12.58;68.04;100360.03;5104902;27;45332;-73
2023/04/23 02:12:41;;;;;;;;;3.00;3.00;;;;;12.54;67.07;100352.22;5113534;27;45371;-72
2023/04/23 02:15:12;;;;;;;;;6.25;2.50;;;;;12.59;67.21;100363.53;5080925;28;46258;-70
2023/04/23 02:17:40;;;;;;;;;6.00;2.75;;;;;12.40;67.49;100331.34;5077668;28;45525;-70
2023/04/23 02:20:08;;;;;;;;;7.50;2.25;;;;;12.45;68.04;100359.31;5075357;28;45655;-70
2023/04/23 02:22:39;;;;;;;;;4.00;4.00;;;;;12.38;68.49;100362.03;5077002;27;45847;-71
2023/04/23 02:25:06;;;;;;;;;5.00;3.00;;;;;12.36;68.16;100356.78;5092179;27;47571;-69
2023/04/23 02:27:32;;;;;;;;;5.50;4.00;;;;;12.34;68.06;100355.94;5092216;27;45463;-72
2023/04/23 02:29:58;;;;;;;;;6.00;3.25;;;;;12.24;68.89;100343.78;5076910;28;45487;-71
2023/04/23 02:32:23;;;;;;;;;7.25;3.50;;;;;12.18;69.60;100359.63;5092113;27;45568;-70
2023/04/23 02:34:49;;;;;;;;;4.00;3.00;;;;;12.03;69.66;100351.03;5091558;27;47432;-70
2023/04/23 02:37:15;;;;;;;;;5.00;4.00;;;;;12.13;69.38;100351.81;5077655;28;45566;-69
2023/04/23 02:39:40;;;;;;;;;6.25;5.00;;;;;12.00;69.66;100342.28;5109409;27;45863;-71
2023/04/23 02:42:06;;;;;;;;;6.00;4.00;;;;;12.00;70.40;100332.66;5066840;28;45658;-70
2023/04/23 02:44:32;;;;;;;;;4.50;3.25;;;;;11.94;70.30;100331.88;5091782;27;45481;-69
2023/04/23 02:46:57;;;;;;;;;4.00;3.00;;;;;12.13;69.94;100353.56;5091584;27;45402;-73
2023/04/23 02:49:23;;;;;;;;;6.25;5.00;;;;;12.09;69.89;100344.84;5062677;27;45697;-72
2023/04/23 02:51:48;;;;;;;;;7.50;5.00;;;;;12.06;70.30;100344.88;5070379;27;45450;-73
2023/04/23 02:54:14;;;;;;;;;5.25;5.25;;;;;11.97;70.31;100335.31;5091307;27;47893;-72
2023/04/23 02:56:39;;;;;;;;;5.00;4.75;;;;;12.03;70.05;100342.25;5075417;27;45945;-72
2023/04/23 02:59:07;;;;;;;;;4.75;4.75;;;;;12.05;70.17;100343.13;5082778;27;45371;-75
2023/04/23 03:01:33;;;;;;;;;4.75;4.75;;;;;11.97;70.19;100339.72;5084920;27;45382;-75
2023/04/23 03:03:59;;;;;;;;;4.25;3.25;;;;;11.90;71.26;100346.78;5076062;27;45380;-72
2023/04/23 03:06:25;;;;;;;;;5.50;5.25;;;;;11.88;70.89;100344.16;5079118;27;45271;-70
2023/04/23 03:08:51;;;;;;;;;5.50;5.00;;;;;11.74;70.32;100311.03;5075476;27;45513;-70
2023/04/23 03:11:16;;;;;;;;;5.25;3.75;;;;;11.84;71.21;100337.19;5109168;27;45845;-70
2023/04/23 03:13:42;;;;;;;;;5.25;4.00;;;;;11.74;71.06;100327.63;5079341;27;45557;-71
2023/04/23 03:16:08;;;;;;;;;3.75;2.00;;;;;11.79;71.03;100324.97;5067569;27;45485;-70
2023/04/23 03:18:33;;;;;;;;;3.00;3.00;;;;;11.69;71.75;100321.56;5070686;27;45603;-73
2023/04/23 03:20:59;;;;;;;;;5.00;4.00;;;;;11.65;71.07;100315.50;5094879;27;45885;-73
2023/04/23 03:23:25;;;;;;;;;6.50;4.25;;;;;11.60;71.46;100301.56;5079464;27;45301;-69
2023/04/23 03:25:50;;;;;;;;;4.50;4.00;;;;;11.62;71.01;100304.16;5075647;27;45639;-73
2023/04/23 03:28:16;;;;;;;;;5.25;4.00;;;;;11.61;71.46;100305.03;5075135;27;45514;-72
2023/04/23 03:30:41;;;;;;;;;4.00;4.00;;;;;11.58;71.51;100310.28;5074363;27;45729;-70
2023/04/23 03:33:08;;;;;;;;;3.00;3.00;;;;;11.56;71.48;100298.97;5091066;27;47693;-74
2023/04/23 03:35:33;;;;;;;;;5.00;3.75;;;;;11.46;71.99;100291.19;5094471;27;45393;-77
2023/04/23 03:37:59;;;;;;;;;4.00;4.00;;;;;11.54;71.66;100321.72;5078598;27;45515;-74
2023/04/23 03:40:25;;;;;;;;;9.00;5.00;;;;;11.51;71.52;100299.00;5079637;27;45371;-75
2023/04/23 03:42:50;;;;;;;;;6.50;4.25;;;;;11.49;71.78;100292.91;5079190;27;46211;-72
2023/04/23 03:45:16;;;;;;;;;5.25;3.00;;;;;11.48;71.44;100301.63;5079633;27;45376;-72
2023/04/23 03:47:42;;;;;;;;;5.75;4.00;;;;;11.47;72.14;100297.28;5075117;27;45338;-73
2023/04/23 03:50:09;;;;;;;;;3.25;3.25;;;;;11.29;71.94;100281.69;5082240;27;45528;-75
2023/04/23 03:52:35;;;;;;;;;3.75;3.75;;;;;11.41;71.97;100306.09;5068396;27;46220;-74
2023/04/23 03:55:01;;;;;;;;;4.00;3.50;;;;;11.27;72.01;100286.97;5079748;27;45414;-74
2023/04/23 03:57:27;;;;;;;;;3.50;3.50;;;;;11.33;72.50;100307.88;5078300;27;45787;-73
2023/04/23 03:59:52;;;;;;;;;5.00;5.00;;;;;11.23;72.98;100290.50;5074885;27;45601;-73
2023/04/23 04:02:18;;;;;;;;;4.75;4.75;;;;;11.14;72.22;100277.47;5072430;27;45858;-73
2023/04/23 04:04:44;;;;;;;;;8.75;4.50;;;;;11.09;72.75;100285.34;5074715;27;45903;-72
2023/04/23 04:07:11;;;;;;;;;4.00;4.00;;;;;11.22;72.39;100304.47;5091028;27;45479;-71
2023/04/23 04:09:38;;;;;;;;;7.50;3.75;;;;;11.27;72.73;100315.81;5073565;27;46354;-71
2023/04/23 04:12:04;;;;;;;;;5.50;5.50;;;;;11.00;72.95;100280.19;5074988;27;45650;-71
2023/04/23 04:14:31;;;;;;;;;7.00;5.00;;;;;11.10;72.74;100291.47;5074030;27;45402;-71
2023/04/23 04:16:58;;;;;;;;;7.25;5.00;;;;;10.98;72.88;100274.06;5074762;27;45484;-70
2023/04/23 04:19:24;;;;;;;;;5.00;5.00;;;;;11.01;72.93;100281.94;5073816;27;45557;-70
2023/04/23 04:21:53;;;;;;;;;6.25;5.25;;;;;10.88;73.19;100254.94;5074423;27;45562;-70
2023/04/23 04:24:18;;;;;;;;;7.25;5.00;;;;;10.97;72.74;100270.59;5074466;27;45626;-70
2023/04/23 04:26:45;;;;;;;;;8.25;6.00;;;;;10.97;72.87;100286.31;5074543;27;45476;-71
2023/04/23 04:29:10;;;;;;;;;4.25;4.25;;;;;10.96;72.66;100268.88;5073224;27;45692;-71
2023/04/23 04:31:36;;;;;;;;;8.25;8.25;;;;;10.99;72.70;100276.69;5092838;27;47563;-71
2023/04/23 04:34:02;;;;;;;;;10.25;5.50;;;;;11.01;72.47;100281.94;5077038;27;45355;-70
2023/04/23 04:36:28;;;;;;;;;6.50;5.00;;;;;11.06;72.54;100289.72;5077101;27;45305;-69
2023/04/23 04:38:57;;;;;;;;;9.25;6.50;;;;;11.01;72.45;100284.56;5078651;27;45430;-70
2023/04/23 04:41:24;;;;;;;;;10.75;8.50;;;;;10.96;72.64;100279.34;5094249;27;48018;-70
2023/04/23 04:43:50;;;;;;;;;8.00;7.50;;;;;10.92;72.25;100263.66;5075993;27;45500;-70
2023/04/23 04:46:19;;;;;;;;;8.50;8.25;;;;;10.87;72.64;100266.31;5074285;27;45365;-71
2023/04/23 04:48:45;;;;;;;;;9.00;7.75;;;;;10.98;72.54;100271.44;5073025;27;45511;-71
2023/04/23 04:51:11;;;;;;;;;6.75;5.00;;;;;10.87;72.99;100263.69;5066508;27;47111;-72
2023/04/23 04:53:36;;;;;;;;;5.00;5.00;;;;;10.72;72.47;100251.53;5089536;27;45801;-70
2023/04/23 04:56:02;;;;;;;;;5.25;5.00;;;;;10.78;72.63;100259.38;5075768;28;45554;-70
2023/04/23 04:58:27;;;;;;;;;5.25;5.25;;;;;10.73;72.86;100247.19;5111957;27;45582;-71
2023/04/23 05:00:54;;;;;;;;;6.00;4.50;;;;;10.88;72.77;100256.69;5077065;27;47328;-70
2023/04/23 05:03:20;;;;;;;;;8.00;5.00;;;;;10.89;73.14;100256.69;5078365;27;45367;-70
2023/04/23 05:05:47;;;;;;;;;7.75;5.50;;;;;10.80;73.20;100249.75;5090418;27;45667;-70
2023/04/23 05:08:15;;;;;;;;;7.75;5.50;;;;;10.75;72.96;100253.28;5073026;27;45376;-71
2023/04/23 05:10:41;;;;;;;;;6.00;5.00;;;;;10.76;73.10;100249.78;5089409;27;46653;-70
2023/04/23 05:13:07;;;;;;;;;8.25;4.00;;;;;10.72;73.22;100245.44;5071989;27;45550;-69
2023/04/23 05:15:32;;;;;;;;;3.75;3.50;;;;;10.80;73.05;100254.13;5076981;28;45411;-68
2023/04/23 05:17:58;;;;;;;;;6.00;4.50;;;;;10.81;73.05;100245.38;5077977;28;45489;-70
2023/04/23 05:20:24;;;;;;;;;5.75;4.00;;;;;10.88;72.71;100249.69;5071627;27;47405;-71
2023/04/23 05:22:49;;;;;;;;;6.50;5.00;;;;;10.88;72.86;100257.56;5074485;27;46128;-70
2023/04/23 05:25:15;;;;;;;;;8.00;4.00;;;;;10.92;72.70;100258.41;5093364;27;45437;-72
2023/04/23 05:27:40;;;;;;;;;6.00;4.00;;;;;10.82;73.01;100250.63;5075735;27;45372;-71
2023/04/23 05:30:08;;;;;;;;;4.75;3.75;;;;;10.87;72.54;100244.44;5073084;27;45468;-70
2023/04/23 05:32:34;;;;;;;;;6.00;3.75;;;;;10.88;72.59;100244.44;5073526;28;45486;-71
2023/04/23 05:35:02;;;;;;;;;3.75;3.75;;;;;10.86;72.87;100243.59;5073271;27;45571;-70
2023/04/23 05:37:28;;;;;;;;;5.00;3.75;;;;;10.89;72.80;100247.94;5089543;27;45829;-70
2023/04/23 05:39:53;;;;;;;;;4.00;2.50;;;;;10.91;72.45;100247.03;5073056;28;46232;-69
2023/04/23 05:42:20;;;;;;;;;4.00;4.00;;;;;10.90;72.72;100234.84;5072792;27;45641;-70
2023/04/23 05:44:45;;;;;;;;;4.50;3.75;;;;;11.02;72.78;100245.22;5072053;28;45492;-71
2023/04/23 05:47:13;;;;;;;;;3.25;3.00;;;;;11.06;71.99;100240.84;5089411;27;45538;-69
2023/04/23 05:49:38;;;;;;;;;5.00;4.50;;;;;10.89;72.41;100199.06;5107363;27;45470;-71
2023/04/23 05:52:05;;;;;;;;;4.00;4.00;;;;;11.10;72.15;100223.31;5065060;27;45755;-72
2023/04/23 05:54:30;;;;;;;;;8.00;6.00;;;;;11.04;71.63;100214.63;5069566;27;45694;-73
2023/04/23 05:56:56;;;;;;;;;4.75;4.75;;;;;11.11;71.57;100204.97;5089184;27;45794;-72
2023/04/23 05:59:22;;;;;;;;;4.50;3.25;;;;;11.10;71.49;100205.84;5072513;27;46545;-72
2023/04/23 06:01:48;;;;;;;;;5.00;5.00;;;;;11.28;71.53;100238.91;5072683;28;45945;-73
2023/04/23 06:04:15;;;;;;;;;5.25;5.00;;;;;11.07;71.81;100221.59;5073598;28;45441;-73
2023/04/23 06:06:42;;;;;;;;;5.75;5.00;;;;;11.01;71.80;100205.94;5073730;27;45390;-72
2023/04/23 06:09:07;;;;;;;;;3.75;3.75;;;;;11.02;72.03;100221.63;5090818;27;46495;-71
2023/04/23 06:11:34;;;;;;;;;9.25;4.50;;;;;11.11;72.10;100228.56;5088858;27;45400;-72
2023/04/23 06:14:00;;;;;;;;;7.50;6.00;;;;;10.99;72.23;100212.94;5073505;28;45413;-71
2023/04/23 06:16:26;;;;;;;;;8.75;5.25;;;;;10.98;72.28;100225.16;5092946;27;45527;-71
2023/04/23 06:18:52;;;;;;;;;6.50;4.25;;;;;11.10;71.98;100232.03;5078099;27;46376;-72
2023/04/23 06:21:19;;;;;;;;;5.00;5.00;;;;;11.12;71.90;100229.41;5090939;27;45559;-69
2023/04/23 06:23:44;;;;;;;;;6.75;5.75;;;;;11.10;72.20;100226.81;5071859;27;45387;-72
2023/04/23 06:26:10;;;;;;;;;4.75;4.50;;;;;10.79;72.22;100179.03;5076278;27;45475;-70
2023/04/23 06:28:35;;;;;;;;;5.75;5.00;;;;;11.15;72.32;100221.53;5092035;27;47584;-73
2023/04/23 06:31:01;;;;;;;;;8.25;6.00;;;;;11.21;72.30;100237.22;5083143;27;45398;-72
2023/04/23 06:33:27;;;;;;;;;5.00;5.00;;;;;11.20;72.56;100222.34;5056523;27;45836;-72
2023/04/23 06:35:52;;;;;;;;;9.25;4.75;;;;;11.26;72.38;100224.94;5054982;27;45363;-70
2023/04/23 06:38:20;;;;;;;;;6.50;5.50;;;;;11.11;72.27;100210.22;5088446;27;46895;-70
2023/04/23 06:40:45;;;;;;;;;10.50;6.00;;;;;11.17;72.54;100204.03;5054260;27;45432;-72
2023/04/23 06:43:11;;;;;;;;;8.00;8.00;;;;;11.28;72.77;100209.19;5071123;27;45542;-72
2023/04/23 06:45:37;;;;;;;;;5.75;5.75;;;;;11.14;72.49;100180.47;5056511;27;46111;-70
2023/04/23 06:48:02;;;;;;;;;9.25;6.00;;;;;11.02;72.92;100170.97;5060063;27;45547;-71
2023/04/23 06:50:28;;;;;;;;;10.00;6.00;;;;;11.16;73.63;100199.69;5058585;27;45466;-71
2023/04/23 06:52:55;;;;;;;;;9.00;6.50;;;;;11.20;73.73;100191.78;5063343;27;45329;-69
2023/04/23 06:55:24;;;;;;;;;8.75;6.75;;;;;11.32;73.59;100209.16;5057255;28;45308;-71
2023/04/23 06:57:53;;;;;;;;;9.00;5.75;;;;;11.31;73.61;100198.66;5087732;27;46902;-70
2023/04/23 07:00:20;;;;;;;;;10.50;6.00;;;;;11.24;73.79;100187.38;5055008;27;45516;-71
2023/04/23 07:02:46;;;;;;;;;10.25;8.75;;;;;11.23;74.30;100185.66;5061873;27;45428;-70
2023/04/23 07:05:12;;;;;;;;;10.50;8.50;;;;;11.33;74.67;100204.78;5054414;27;45525;-71
2023/04/23 07:07:37;;;;;;;;;10.25;8.50;;;;;11.30;75.21;100203.06;5063979;27;47754;-70
2023/04/23 07:10:04;;;;;;;;;5.75;5.75;;;;;11.28;75.54;100177.75;5091985;27;45416;-71
2023/04/23 07:12:30;;;;;;;;;9.75;5.00;;;;;11.31;75.44;100172.44;5057978;27;45524;-70
2023/04/23 07:14:55;;;;;;;;;8.50;5.50;;;;;11.42;75.73;100187.19;5088349;27;45487;-70
2023/04/23 07:17:21;;;;;;;;;3.50;3.50;;;;;11.42;75.63;100179.31;5055216;27;46672;-71
2023/04/23 07:19:47;;;;;;;;;5.75;5.25;;;;;11.44;76.25;100188.06;5087341;27;45435;-73
2023/04/23 07:22:12;;;;;;;;;9.75;6.50;;;;;11.37;76.35;100173.25;5056075;27;45600;-71
2023/04/23 07:24:38;;;;;;;;;9.50;8.50;;;;;11.45;76.79;100181.03;5058538;27;45452;-70
2023/04/23 07:27:06;;;;;;;;;10.00;7.50;;;;;11.48;77.21;100172.28;5059864;27;45461;-69
2023/04/23 07:29:31;;;;;;;;;7.50;7.50;;;;;11.48;76.93;100178.38;5054990;27;45332;-70
2023/04/23 07:31:57;;;;;;;;;10.50;9.25;;;;;11.42;77.25;100162.72;5055142;27;45512;-70
2023/04/23 07:34:23;;;;;;;;;7.50;5.25;;;;;11.36;77.78;100152.28;5053325;28;45498;-70
2023/04/23 07:36:48;;;;;;;;;11.50;8.75;;;;;11.50;77.65;100162.63;5054661;27;45621;-70
2023/04/23 07:39:14;;;;;;;;;4.75;4.50;;;;;11.44;78.27;100168.84;5055160;27;45445;-72
2023/04/23 07:41:39;;;;;;;;;11.00;10.25;;;;;11.29;78.23;100143.63;5054792;27;45370;-70
2023/04/23 07:44:05;;;;;;;;;10.75;8.00;;;;;11.32;78.40;100122.63;5055870;27;45492;-70
2023/04/23 07:46:31;;;;;;;;;10.25;9.50;;;;;11.51;78.02;100161.75;5057739;27;47532;-70
2023/04/23 07:48:56;;;;;;;;;7.25;7.00;;;;;11.52;77.63;100143.38;5061486;27;45717;-72
2023/04/23 07:51:25;;;;;;;;;10.25;9.50;;;;;11.61;78.22;100159.00;5060682;27;45810;-69
2023/04/23 07:54:09;;;;;;;;;15.25;9.25;;;;;11.57;78.94;100180.03;5075073;27;45424;-73
2023/04/23 07:56:35;;;;;;;;;12.00;11.00;;;;;11.46;78.72;100149.56;5090775;27;45803;-70
2023/04/23 07:59:01;;;;;;;;;11.50;9.25;;;;;11.58;78.52;100169.56;5079193;27;45558;-71
2023/04/23 08:01:27;;;;;;;;;11.25;11.25;;;;;11.63;78.63;100153.75;5078782;27;45473;-70
2023/04/23 08:03:54;;;;;;;;;14.00;11.25;;;;;11.62;79.12;100152.88;5095027;27;45468;-69
2023/04/23 08:06:22;;;;;;;;;12.25;8.50;;;;;11.61;78.95;100124.91;5077327;27;48212;-70
2023/04/23 08:08:48;;;;;;;;;13.00;11.00;;;;;11.72;79.15;100135.28;5094524;27;45623;-72
2023/04/23 08:11:15;;;;;;;;;9.50;8.75;;;;;11.74;79.51;100124.75;5072901;27;45758;-69
2023/04/23 08:13:41;;;;;;;;;16.25;12.25;;;;;11.67;80.08;100117.00;5072626;27;45587;-70
2023/04/23 08:16:06;;;;;;;;;13.75;10.75;;;;;11.71;79.27;100120.41;5065902;27;46025;-71
2023/04/23 08:18:32;;;;;;;;;13.75;12.00;;;;;11.67;79.89;100084.63;5074247;27;45587;-71
2023/04/23 08:20:58;;;;;;;;;10.00;9.50;;;;;11.62;80.09;100058.44;5075043;27;45492;-71
2023/04/23 08:23:24;;;;;;;;;10.00;10.00;;;;;11.84;79.20;100068.66;5074573;27;45706;-72
2023/04/23 08:25:50;;;;;;;;;14.50;12.25;;;;;12.00;79.27;100083.31;5074704;27;46407;-71
2023/04/23 08:28:17;;;;;;;;;14.00;10.50;;;;;11.96;79.59;100070.25;5078514;27;45456;-72
2023/04/23 08:30:48;;;;;;;;;13.00;13.00;;;;;11.95;79.69;100053.66;5092298;27;45408;-72
2023/04/23 08:33:14;;;;;;;;;15.00;12.50;;;;;11.87;79.90;100045.03;5090070;27;45463;-72
2023/04/23 08:35:42;;;;;;;;;13.50;10.75;;;;;11.95;79.97;100024.78;5089184;27;47835;-71
2023/04/23 08:38:08;;;;;;;;;12.25;11.50;;;;;11.97;79.61;100032.66;5073473;27;45473;-72
2023/04/23 08:40:36;;;;;;;;;14.25;11.75;;;;;11.94;80.12;100033.56;5074206;27;45413;-72
2023/04/23 08:43:15;;;;;;;;;15.00;11.50;;;;;11.89;80.08;100027.53;5072950;27;45470;-70
2023/04/23 08:45:45;;;;;;;;;14.00;12.25;;;;;11.94;80.20;100015.19;5054196;28;46076;-70
2023/04/23 08:48:11;;;;;;;;;17.25;14.00;;;;;11.99;79.98;100023.00;5052667;27;45441;-73
2023/04/23 08:50:40;;;;;;;;;11.25;10.75;;;;;11.91;79.84;99998.63;5071274;27;45370;-71
2023/04/23 08:53:07;;;;;;;;;13.50;12.00;;;;;11.99;79.96;100012.50;5076661;27;45500;-71
2023/04/23 08:55:34;;;;;;;;;10.25;10.25;;;;;12.04;80.49;100000.16;5093698;27;45505;-71
2023/04/23 08:58:11;;;;;;;;;17.00;11.75;;;;;12.01;80.97;99992.34;5093822;27;45450;-72
2023/04/23 09:00:37;;;;;;;;;11.75;10.00;;;;;12.04;80.37;99989.66;5073691;27;45464;-72
2023/04/23 09:03:53;;;;;;;;;12.50;12.50;;;;;12.00;80.56;99990.59;5073609;27;45432;-71
2023/04/23 09:06:20;;;;;;;;;15.25;13.75;;;;;11.86;80.54;99947.06;5069753;27;45410;-73
2023/04/23 09:08:46;;;;;;;;;10.75;9.75;;;;;11.96;80.26;99952.16;5077633;28;45359;-72
2023/04/23 09:11:12;;;;;;;;;15.25;12.00;;;;;12.05;80.08;99949.41;5073922;27;45640;-72
2023/04/23 09:13:40;;;;;;;;;14.50;11.00;;;;;12.16;79.59;99951.84;5085044;27;45681;-72
2023/04/23 09:16:05;;;;;;;;;17.00;13.00;;;;;12.22;80.34;99933.34;5053822;28;45728;-70
2023/04/23 09:18:31;;;;;;;;;11.75;10.25;;;;;12.36;80.00;99946.25;5069015;27;45408;-71
2023/04/23 09:20:57;;;;;;;;;12.50;11.00;;;;;12.62;79.12;99943.13;5057484;27;45433;-72
2023/04/23 09:23:22;;;;;;;;;11.75;11.75;;;;;12.83;78.03;99926.09;5090120;27;45589;-71
2023/04/23 09:25:48;;;;;;;;;10.50;9.25;;;;;12.78;77.62;99896.41;5057317;27;45491;-72
2023/04/23 09:28:14;;;;;;;;;13.75;11.75;;;;;12.81;77.55;99880.59;5063420;28;45338;-72
2023/04/23 09:30:47;;;;;;;;;11.00;10.00;;;;;13.06;77.21;99896.72;5103731;27;45370;-71
2023/04/23 09:33:15;;;;;;;;;16.00;13.00;;;;;12.94;76.66;99903.09;5070839;27;45523;-72
2023/04/23 09:35:42;;;;;;;;;16.25;11.25;;;;;12.79;77.21;99892.88;5070129;27;46292;-70
2023/04/23 09:38:09;;;;;;;;;15.50;13.50;;;;;12.76;77.26;99893.81;5060850;27;45796;-72
2023/04/23 09:40:37;;;;;;;;;12.50;9.50;;;;;12.69;76.51;99869.44;5051876;28;45610;-71
2023/04/23 09:43:05;;;;;;;;;13.25;11.25;;;;;12.76;76.57;99890.31;5089956;27;45325;-70
2023/04/23 09:45:33;;;;;;;;;11.00;9.50;;;;;12.73;76.48;99880.75;5056930;27;45514;-70
2023/04/23 09:47:58;;;;;;;;;12.50;8.25;;;;;12.83;75.81;99870.91;5089382;27;45431;-72
2023/04/23 09:50:39;;;;;;;;;10.50;9.00;;;;;12.91;75.75;99871.63;5053740;28;45489;-69
2023/04/23 09:53:06;;;;;;;;;11.25;10.25;;;;;12.96;75.32;99867.13;5104644;27;45748;-69
2023/04/23 09:55:38;;;;;;;;;11.00;11.00;;;;;12.97;75.76;99850.44;5077458;27;45572;-70
2023/04/23 09:58:05;;;;;;;;;9.00;8.00;;;;;13.10;74.98;99880.84;5076674;27;45468;-68
2023/04/23 10:00:36;;;;;;;;;10.75;9.50;;;;;12.99;74.76;99872.31;5076089;27;45429;-71
2023/04/23 10:03:02;;;;;;;;;14.75;10.75;;;;;12.92;75.13;99865.47;5076359;27;45390;-69
2023/04/23 10:05:33;;;;;;;;;10.25;8.25;;;;;12.87;75.83;99847.16;5076495;27;45575;-69
2023/04/23 10:08:00;;;;;;;;;13.00;10.00;;;;;12.95;75.03;99857.50;5096067;27;45542;-71
2023/04/23 10:10:29;;;;;;;;;11.50;10.00;;;;;12.86;74.44;99847.19;5078661;27;45336;-70
2023/04/23 10:12:59;;;;;;;;;13.00;9.00;;;;;12.86;74.37;99837.56;5081027;27;45559;-75
2023/04/23 10:15:28;;;;;;;;;17.75;14.75;;;;;12.94;74.41;99832.13;5079535;27;45469;-73
2023/04/23 10:17:55;;;;;;;;;12.25;11.50;;;;;12.94;74.08;99825.09;5080619;27;45466;-72
2023/04/23 10:20:24;;;;;;;;;10.25;8.50;;;;;13.03;73.05;99837.19;5079653;27;45519;-71
2023/04/23 10:22:55;;;;;;;;;12.00;8.50;;;;;12.98;72.86;99814.50;5076135;27;45635;-72
2023/04/23 10:25:23;;;;;;;;;13.25;11.25;;;;;13.14;72.73;99826.41;5091748;27;47680;-71
2023/04/23 10:27:51;;;;;;;;;11.25;11.25;;;;;13.15;72.59;99801.88;5075639;27;45347;-68
2023/04/23 10:30:19;;;;;;;;;7.50;7.50;;;;;13.22;72.91;99795.56;5092116;27;45460;-70
2023/04/23 10:32:47;;;;;;;;;16.00;9.25;;;;;13.25;72.66;99792.84;5064904;27;45394;-72
2023/04/23 10:35:13;;;;;;;;;10.50;9.75;;;;;13.22;72.85;99778.94;5075596;27;45535;-71
2023/04/23 10:37:40;;;;;;;;;13.50;12.25;;;;;13.38;73.06;99790.81;5075706;27;45448;-74
2023/04/23 10:40:13;;;;;;;;;9.50;7.50;;;;;13.32;72.57;99788.34;5093771;27;45397;-72
2023/04/23 10:42:40;;;;;;;;;6.75;6.50;;;;;13.27;72.19;99787.56;5092408;27;45536;-74
2023/04/23 10:45:15;;;;;;;;;9.25;8.00;;;;;13.39;71.56;99792.53;5075594;27;45457;-72
2023/04/23 10:47:42;;;;;;;;;9.25;7.50;;;;;13.34;70.94;99770.75;5095793;27;45440;-70
2023/04/23 10:50:35;;;;;;;;;8.67;6.33;;;;;13.48;70.91;99763.38;5070080;27;45395;-68
2023/04/23 10:53:01;;;;;;;;;8.25;8.00;;;;;13.46;70.81;99759.94;5071437;27;45665;-71
2023/04/23 10:55:29;;;;;;;;;7.33;6.33;;;;;13.50;70.10;99740.53;5108690;27;45667;-69
2023/04/23 10:57:57;;;;;;;;;10.00;7.33;;;;;13.61;69.95;99731.50;5075432;27;45457;-70
2023/04/23 11:00:23;;;;;;;;;7.00;6.75;;;;;13.72;68.87;99724.19;5075844;27;45564;-70
2023/04/23 11:02:51;;;;;;;;;8.75;6.00;;;;;13.82;69.05;99738.81;5077237;27;45567;-69
2023/04/23 11:05:17;;;;;;;;;7.67;6.00;;;;;13.77;68.71;99722.28;5077003;27;45795;-70
2023/04/23 11:08:01;;;;;;;;;8.50;7.25;;;;;13.62;68.53;99725.31;5074780;27;45475;-67
2023/04/23 11:10:27;;;;;;;;;8.00;6.33;;;;;13.65;68.66;99706.84;5063103;27;45373;-68
2023/04/23 11:12:55;;;;;;;;;5.00;5.00;;;;;13.67;68.61;99703.25;5079997;27;45347;-71
2023/04/23 11:15:20;;;;;;;;;8.00;6.25;;;;;13.72;68.72;99706.63;5079783;27;45474;-69
2023/04/23 11:17:47;;;;;;;;;5.33;5.33;;;;;13.63;69.06;99696.34;5095428;27;45453;-70
2023/04/23 11:20:17;;;;;;;;;7.00;6.33;;;;;13.46;69.10;99667.88;5075928;27;45379;-71
2023/04/23 11:22:45;;;;;;;;;5.00;5.00;;;;;13.34;69.10;99650.66;5066996;27;45351;-67